sensor_id;sensor_type;location;lat;lon;timestamp;P1;durP1;ratioP1;P2;durP2;ratioP2
74503;SDS011;62988;55.776;37.544;2023-08-21T00:00:36;8.93;;;2.77;;
74503;SDS011;62988;55.776;37.544;2023-08-21T00:03:01;4.13;;;2.60;;
74503;SDS011;62988;55.776;37.544;2023-08-21T00:05:27;4.87;;;2.57;;
74503;SDS011;62988;55.776;37.544;2023-08-21T00:07:52;4.67;;;3.00;;
74503;SDS011;62988;55.776;37.544;2023-08-21T00:10:17;6.47;;;2.90;;
74503;SDS011;62988;55.776;37.544;2023-08-21T00:12:42;5.30;;;3.63;;
74503;SDS011;62988;55.776;37.544;2023-08-21T00:15:08;5.73;;;2.90;;
74503;SDS011;62988;55.776;37.544;2023-08-21T00:17:35;4.35;;;2.72;;
74503;SDS011;62988;55.776;37.544;2023-08-21T00:20:00;7.90;;;3.10;;
74503;SDS011;62988;55.776;37.544;2023-08-21T00:22:25;5.73;;;2.90;;
74503;SDS011;62988;55.776;37.544;2023-08-21T00:24:50;7.47;;;3.10;;
74503;SDS011;62988;55.776;37.544;2023-08-21T00:27:16;8.90;;;3.03;;
74503;SDS011;62988;55.776;37.544;2023-08-21T00:29:41;6.30;;;3.40;;
74503;SDS011;62988;55.776;37.544;2023-08-21T00:32:06;8.00;;;3.57;;
74503;SDS011;62988;55.776;37.544;2023-08-21T00:34:32;6.20;;;3.90;;
74503;SDS011;62988;55.776;37.544;2023-08-21T00:36:57;6.50;;;3.83;;
74503;SDS011;62988;55.776;37.544;2023-08-21T00:39:22;6.77;;;3.83;;
74503;SDS011;62988;55.776;37.544;2023-08-21T00:41:48;5.80;;;3.43;;
74503;SDS011;62988;55.776;37.544;2023-08-21T00:44:13;5.07;;;3.23;;
74503;SDS011;62988;55.776;37.544;2023-08-21T00:46:38;4.83;;;3.17;;
74503;SDS011;62988;55.776;37.544;2023-08-21T00:49:04;5.32;;;3.40;;
74503;SDS011;62988;55.776;37.544;2023-08-21T00:51:29;6.28;;;3.50;;
74503;SDS011;62988;55.776;37.544;2023-08-21T00:53:55;5.77;;;3.20;;
74503;SDS011;62988;55.776;37.544;2023-08-21T00:56:20;7.03;;;3.65;;
74503;SDS011;62988;55.776;37.544;2023-08-21T00:58:46;8.02;;;3.78;;
74503;SDS011;62988;55.776;37.544;2023-08-21T01:01:12;7.63;;;4.05;;
74503;SDS011;62988;55.776;37.544;2023-08-21T01:03:39;11.55;;;4.15;;
74503;SDS011;62988;55.776;37.544;2023-08-21T01:06:05;5.63;;;3.20;;
74503;SDS011;62988;55.776;37.544;2023-08-21T01:08:34;6.53;;;3.67;;
74503;SDS011;62988;55.776;37.544;2023-08-21T01:16:10;13.05;;;3.75;;
74503;SDS011;62988;55.776;37.544;2023-08-21T01:18:37;7.85;;;3.75;;
74503;SDS011;62988;55.776;37.544;2023-08-21T01:21:03;12.88;;;4.20;;
74503;SDS011;62988;55.776;37.544;2023-08-21T01:23:36;7.80;;;4.47;;
74503;SDS011;62988;55.776;37.544;2023-08-21T01:26:02;6.75;;;4.18;;
74503;SDS011;62988;55.776;37.544;2023-08-21T01:28:27;6.95;;;3.92;;
74503;SDS011;62988;55.776;37.544;2023-08-21T01:30:55;9.15;;;3.72;;
74503;SDS011;62988;55.776;37.544;2023-08-21T01:33:22;7.63;;;3.65;;
74503;SDS011;62988;55.776;37.544;2023-08-21T01:35:48;7.00;;;3.93;;
74503;SDS011;62988;55.776;37.544;2023-08-21T01:38:13;7.53;;;4.38;;
74503;SDS011;62988;55.776;37.544;2023-08-21T01:40:39;7.67;;;4.27;;
74503;SDS011;62988;55.776;37.544;2023-08-21T01:43:04;6.47;;;4.20;;
74503;SDS011;62988;55.776;37.544;2023-08-21T01:45:30;6.30;;;3.90;;
74503;SDS011;62988;55.776;37.544;2023-08-21T01:47:55;8.93;;;3.97;;
74503;SDS011;62988;55.776;37.544;2023-08-21T01:50:20;6.33;;;3.90;;
74503;SDS011;62988;55.776;37.544;2023-08-21T01:52:46;7.03;;;4.07;;
74503;SDS011;62988;55.776;37.544;2023-08-21T01:55:11;7.37;;;3.73;;
74503;SDS011;62988;55.776;37.544;2023-08-21T01:57:37;6.63;;;4.10;;
74503;SDS011;62988;55.776;37.544;2023-08-21T02:00:02;7.10;;;3.53;;
74503;SDS011;62988;55.776;37.544;2023-08-21T02:02:29;6.85;;;3.97;;
74503;SDS011;62988;55.776;37.544;2023-08-21T02:04:55;6.82;;;3.78;;
74503;SDS011;62988;55.776;37.544;2023-08-21T02:07:20;6.70;;;3.27;;
74503;SDS011;62988;55.776;37.544;2023-08-21T02:09:45;7.50;;;3.47;;
74503;SDS011;62988;55.776;37.544;2023-08-21T02:12:11;8.43;;;4.10;;
74503;SDS011;62988;55.776;37.544;2023-08-21T02:14:36;4.73;;;3.23;;
74503;SDS011;62988;55.776;37.544;2023-08-21T02:17:01;7.70;;;3.90;;
74503;SDS011;62988;55.776;37.544;2023-08-21T02:19:27;9.48;;;3.72;;
74503;SDS011;62988;55.776;37.544;2023-08-21T02:21:52;7.47;;;4.03;;
74503;SDS011;62988;55.776;37.544;2023-08-21T02:24:18;8.53;;;4.30;;
74503;SDS011;62988;55.776;37.544;2023-08-21T02:26:43;9.23;;;3.70;;
74503;SDS011;62988;55.776;37.544;2023-08-21T02:29:10;11.80;;;3.45;;
74503;SDS011;62988;55.776;37.544;2023-08-21T02:31:36;5.90;;;3.40;;
74503;SDS011;62988;55.776;37.544;2023-08-21T02:34:01;11.37;;;3.70;;
74503;SDS011;62988;55.776;37.544;2023-08-21T02:36:26;6.67;;;3.30;;
74503;SDS011;62988;55.776;37.544;2023-08-21T02:38:52;5.57;;;3.57;;
74503;SDS011;62988;55.776;37.544;2023-08-21T02:41:17;4.90;;;3.30;;
74503;SDS011;62988;55.776;37.544;2023-08-21T02:43:43;5.90;;;3.17;;
74503;SDS011;62988;55.776;37.544;2023-08-21T02:46:08;8.32;;;3.33;;
74503;SDS011;62988;55.776;37.544;2023-08-21T02:48:34;6.43;;;3.30;;
74503;SDS011;62988;55.776;37.544;2023-08-21T02:50:59;5.63;;;2.93;;
74503;SDS011;62988;55.776;37.544;2023-08-21T02:53:24;7.27;;;3.27;;
74503;SDS011;62988;55.776;37.544;2023-08-21T02:55:50;7.43;;;2.90;;
74503;SDS011;62988;55.776;37.544;2023-08-21T02:58:15;6.10;;;2.93;;
74503;SDS011;62988;55.776;37.544;2023-08-21T03:00:40;7.20;;;2.70;;
74503;SDS011;62988;55.776;37.544;2023-08-21T03:03:06;5.70;;;2.93;;
74503;SDS011;62988;55.776;37.544;2023-08-21T03:05:31;5.30;;;2.80;;
74503;SDS011;62988;55.776;37.544;2023-08-21T03:07:56;5.20;;;2.37;;
74503;SDS011;62988;55.776;37.544;2023-08-21T03:10:21;7.63;;;2.77;;
74503;SDS011;62988;55.776;37.544;2023-08-21T03:12:48;8.10;;;2.60;;
74503;SDS011;62988;55.776;37.544;2023-08-21T03:15:14;5.63;;;2.72;;
74503;SDS011;62988;55.776;37.544;2023-08-21T03:17:39;4.97;;;2.37;;
74503;SDS011;62988;55.776;37.544;2023-08-21T03:20:04;4.93;;;2.83;;
74503;SDS011;62988;55.776;37.544;2023-08-21T03:22:30;5.72;;;2.63;;
74503;SDS011;62988;55.776;37.544;2023-08-21T03:24:56;7.28;;;2.42;;
74503;SDS011;62988;55.776;37.544;2023-08-21T03:27:22;5.07;;;2.22;;
74503;SDS011;62988;55.776;37.544;2023-08-21T03:29:47;4.70;;;2.13;;
74503;SDS011;62988;55.776;37.544;2023-08-21T03:32:15;4.60;;;2.55;;
74503;SDS011;62988;55.776;37.544;2023-08-21T03:34:41;6.57;;;2.45;;
74503;SDS011;62988;55.776;37.544;2023-08-21T03:37:06;4.35;;;2.30;;
74503;SDS011;62988;55.776;37.544;2023-08-21T03:39:32;4.83;;;2.10;;
74503;SDS011;62988;55.776;37.544;2023-08-21T03:41:58;7.65;;;2.17;;
74503;SDS011;62988;55.776;37.544;2023-08-21T03:44:23;4.30;;;2.00;;
74503;SDS011;62988;55.776;37.544;2023-08-21T03:46:48;6.03;;;2.40;;
74503;SDS011;62988;55.776;37.544;2023-08-21T03:49:14;6.07;;;2.33;;
74503;SDS011;62988;55.776;37.544;2023-08-21T03:51:39;7.23;;;2.83;;
74503;SDS011;62988;55.776;37.544;2023-08-21T03:54:04;4.70;;;2.40;;
74503;SDS011;62988;55.776;37.544;2023-08-21T03:56:30;6.10;;;2.17;;
74503;SDS011;62988;55.776;37.544;2023-08-21T03:58:55;8.87;;;2.50;;
74503;SDS011;62988;55.776;37.544;2023-08-21T04:01:21;7.53;;;1.90;;
74503;SDS011;62988;55.776;37.544;2023-08-21T04:03:46;8.77;;;2.63;;
74503;SDS011;62988;55.776;37.544;2023-08-21T04:06:11;11.43;;;3.67;;
74503;SDS011;62988;55.776;37.544;2023-08-21T04:08:37;7.70;;;2.57;;
74503;SDS011;62988;55.776;37.544;2023-08-21T04:11:02;7.07;;;3.17;;
74503;SDS011;62988;55.776;37.544;2023-08-21T04:13:27;5.13;;;2.67;;
74503;SDS011;62988;55.776;37.544;2023-08-21T04:15:53;6.63;;;2.20;;
74503;SDS011;62988;55.776;37.544;2023-08-21T04:18:19;5.03;;;2.08;;
74503;SDS011;62988;55.776;37.544;2023-08-21T04:20:44;6.87;;;2.20;;
74503;SDS011;62988;55.776;37.544;2023-08-21T04:23:09;5.40;;;2.30;;
74503;SDS011;62988;55.776;37.544;2023-08-21T04:25:35;4.47;;;2.17;;
74503;SDS011;62988;55.776;37.544;2023-08-21T04:28:00;7.87;;;2.47;;
74503;SDS011;62988;55.776;37.544;2023-08-21T04:30:25;5.13;;;2.40;;
74503;SDS011;62988;55.776;37.544;2023-08-21T04:32:51;3.47;;;2.03;;
74503;SDS011;62988;55.776;37.544;2023-08-21T04:35:16;6.37;;;1.73;;
74503;SDS011;62988;55.776;37.544;2023-08-21T04:37:46;4.83;;;1.90;;
74503;SDS011;62988;55.776;37.544;2023-08-21T04:40:12;5.10;;;1.75;;
74503;SDS011;62988;55.776;37.544;2023-08-21T04:42:37;3.97;;;1.65;;
74503;SDS011;62988;55.776;37.544;2023-08-21T04:45:03;3.10;;;1.50;;
74503;SDS011;62988;55.776;37.544;2023-08-21T04:47:29;4.97;;;1.73;;
74503;SDS011;62988;55.776;37.544;2023-08-21T04:49:55;6.72;;;1.70;;
74503;SDS011;62988;55.776;37.544;2023-08-21T04:52:21;8.02;;;2.00;;
74503;SDS011;62988;55.776;37.544;2023-08-21T04:54:49;9.52;;;2.47;;
74503;SDS011;62988;55.776;37.544;2023-08-21T04:57:15;5.95;;;2.03;;
74503;SDS011;62988;55.776;37.544;2023-08-21T04:59:41;5.28;;;2.50;;
74503;SDS011;62988;55.776;37.544;2023-08-21T05:02:06;6.35;;;2.63;;
74503;SDS011;62988;55.776;37.544;2023-08-21T05:04:32;6.07;;;1.70;;
74503;SDS011;62988;55.776;37.544;2023-08-21T05:06:58;3.35;;;1.45;;
74503;SDS011;62988;55.776;37.544;2023-08-21T05:09:23;6.15;;;1.75;;
74503;SDS011;62988;55.776;37.544;2023-08-21T05:11:48;4.93;;;1.67;;
74503;SDS011;62988;55.776;37.544;2023-08-21T05:14:14;6.93;;;2.07;;
74503;SDS011;62988;55.776;37.544;2023-08-21T05:16:39;5.17;;;1.90;;
74503;SDS011;62988;55.776;37.544;2023-08-21T05:19:04;3.73;;;1.60;;
74503;SDS011;62988;55.776;37.544;2023-08-21T05:21:29;6.00;;;2.00;;
74503;SDS011;62988;55.776;37.544;2023-08-21T05:23:55;4.00;;;1.70;;
74503;SDS011;62988;55.776;37.544;2023-08-21T05:26:20;5.80;;;1.80;;
74503;SDS011;62988;55.776;37.544;2023-08-21T05:28:45;9.63;;;3.07;;
74503;SDS011;62988;55.776;37.544;2023-08-21T05:31:11;8.23;;;1.50;;
74503;SDS011;62988;55.776;37.544;2023-08-21T05:33:36;4.97;;;1.53;;
74503;SDS011;62988;55.776;37.544;2023-08-21T05:36:01;3.08;;;1.27;;
74503;SDS011;62988;55.776;37.544;2023-08-21T05:38:27;8.52;;;1.73;;
74503;SDS011;62988;55.776;37.544;2023-08-21T05:40:52;4.73;;;2.53;;
74503;SDS011;62988;55.776;37.544;2023-08-21T05:43:18;3.55;;;1.65;;
74503;SDS011;62988;55.776;37.544;2023-08-21T05:45:43;3.13;;;1.30;;
74503;SDS011;62988;55.776;37.544;2023-08-21T05:48:08;3.27;;;1.20;;
74503;SDS011;62988;55.776;37.544;2023-08-21T05:50:34;3.43;;;1.57;;
74503;SDS011;62988;55.776;37.544;2023-08-21T05:53:02;5.32;;;1.65;;
74503;SDS011;62988;55.776;37.544;2023-08-21T05:55:28;5.85;;;2.17;;
74503;SDS011;62988;55.776;37.544;2023-08-21T05:57:53;5.30;;;1.90;;
74503;SDS011;62988;55.776;37.544;2023-08-21T06:00:18;7.43;;;1.70;;
74503;SDS011;62988;55.776;37.544;2023-08-21T06:02:44;8.00;;;1.58;;
74503;SDS011;62988;55.776;37.544;2023-08-21T06:05:10;5.05;;;1.65;;
74503;SDS011;62988;55.776;37.544;2023-08-21T06:07:35;3.60;;;1.20;;
74503;SDS011;62988;55.776;37.544;2023-08-21T06:10:00;4.80;;;1.60;;
74503;SDS011;62988;55.776;37.544;2023-08-21T06:12:26;7.47;;;1.60;;
74503;SDS011;62988;55.776;37.544;2023-08-21T06:14:51;4.03;;;1.83;;
74503;SDS011;62988;55.776;37.544;2023-08-21T06:17:16;5.17;;;1.40;;
74503;SDS011;62988;55.776;37.544;2023-08-21T06:19:42;4.13;;;1.40;;
74503;SDS011;62988;55.776;37.544;2023-08-21T06:22:07;3.63;;;1.10;;
74503;SDS011;62988;55.776;37.544;2023-08-21T06:24:32;3.70;;;1.40;;
74503;SDS011;62988;55.776;37.544;2023-08-21T06:26:58;6.37;;;1.70;;
74503;SDS011;62988;55.776;37.544;2023-08-21T06:29:23;3.13;;;1.30;;
74503;SDS011;62988;55.776;37.544;2023-08-21T06:31:49;4.28;;;1.48;;
74503;SDS011;62988;55.776;37.544;2023-08-21T06:34:14;3.88;;;1.40;;
74503;SDS011;62988;55.776;37.544;2023-08-21T06:36:39;9.70;;;1.73;;
74503;SDS011;62988;55.776;37.544;2023-08-21T06:39:05;5.50;;;1.47;;
74503;SDS011;62988;55.776;37.544;2023-08-21T06:41:30;4.23;;;1.23;;
74503;SDS011;62988;55.776;37.544;2023-08-21T06:43:57;9.20;;;1.63;;
74503;SDS011;62988;55.776;37.544;2023-08-21T06:46:22;6.57;;;1.10;;
74503;SDS011;62988;55.776;37.544;2023-08-21T06:48:48;4.10;;;1.20;;
74503;SDS011;62988;55.776;37.544;2023-08-21T06:51:15;4.03;;;1.52;;
74503;SDS011;62988;55.776;37.544;2023-08-21T06:53:40;4.25;;;0.93;;
74503;SDS011;62988;55.776;37.544;2023-08-21T06:56:06;2.35;;;1.00;;
74503;SDS011;62988;55.776;37.544;2023-08-21T06:58:31;2.17;;;0.90;;
74503;SDS011;62988;55.776;37.544;2023-08-21T07:00:57;4.40;;;1.27;;
74503;SDS011;62988;55.776;37.544;2023-08-21T07:03:22;5.10;;;1.50;;
74503;SDS011;62988;55.776;37.544;2023-08-21T07:05:54;3.53;;;1.27;;
74503;SDS011;62988;55.776;37.544;2023-08-21T07:08:21;4.65;;;1.45;;
74503;SDS011;62988;55.776;37.544;2023-08-21T07:10:46;8.10;;;1.45;;
74503;SDS011;62988;55.776;37.544;2023-08-21T07:13:11;5.67;;;1.23;;
74503;SDS011;62988;55.776;37.544;2023-08-21T07:15:37;5.43;;;1.60;;
74503;SDS011;62988;55.776;37.544;2023-08-21T07:18:02;2.30;;;1.27;;
74503;SDS011;62988;55.776;37.544;2023-08-21T07:20:28;2.90;;;1.20;;
74503;SDS011;62988;55.776;37.544;2023-08-21T07:22:53;7.88;;;1.20;;
74503;SDS011;62988;55.776;37.544;2023-08-21T07:25:18;3.47;;;1.13;;
74503;SDS011;62988;55.776;37.544;2023-08-21T07:27:44;3.77;;;1.20;;
74503;SDS011;62988;55.776;37.544;2023-08-21T07:30:09;4.85;;;1.35;;
74503;SDS011;62988;55.776;37.544;2023-08-21T07:32:35;3.45;;;1.38;;
74503;SDS011;62988;55.776;37.544;2023-08-21T07:35:01;2.80;;;1.10;;
74503;SDS011;62988;55.776;37.544;2023-08-21T07:37:26;2.97;;;1.50;;
74503;SDS011;62988;55.776;37.544;2023-08-21T07:39:52;6.30;;;1.80;;
74503;SDS011;62988;55.776;37.544;2023-08-21T07:42:17;6.28;;;1.30;;
74503;SDS011;62988;55.776;37.544;2023-08-21T07:44:43;2.00;;;1.00;;
74503;SDS011;62988;55.776;37.544;2023-08-21T07:47:09;3.42;;;1.30;;
74503;SDS011;62988;55.776;37.544;2023-08-21T07:49:34;2.53;;;1.10;;
74503;SDS011;62988;55.776;37.544;2023-08-21T07:51:59;2.00;;;1.30;;
74503;SDS011;62988;55.776;37.544;2023-08-21T07:54:25;2.00;;;1.00;;
74503;SDS011;62988;55.776;37.544;2023-08-21T07:56:50;2.17;;;1.13;;
74503;SDS011;62988;55.776;37.544;2023-08-21T07:59:16;5.00;;;1.25;;
74503;SDS011;62988;55.776;37.544;2023-08-21T08:01:41;2.28;;;1.10;;
74503;SDS011;62988;55.776;37.544;2023-08-21T08:04:07;3.47;;;1.60;;
74503;SDS011;62988;55.776;37.544;2023-08-21T08:06:32;6.88;;;1.52;;
74503;SDS011;62988;55.776;37.544;2023-08-21T08:08:58;2.80;;;1.50;;
74503;SDS011;62988;55.776;37.544;2023-08-21T08:11:23;6.63;;;1.50;;
74503;SDS011;62988;55.776;37.544;2023-08-21T08:13:49;6.78;;;1.25;;
74503;SDS011;62988;55.776;37.544;2023-08-21T08:16:14;5.30;;;1.30;;
74503;SDS011;62988;55.776;37.544;2023-08-21T08:18:41;2.45;;;1.20;;
74503;SDS011;62988;55.776;37.544;2023-08-21T08:21:06;3.93;;;1.30;;
74503;SDS011;62988;55.776;37.544;2023-08-21T08:23:32;3.67;;;1.23;;
74503;SDS011;62988;55.776;37.544;2023-08-21T08:25:57;5.10;;;1.30;;
74503;SDS011;62988;55.776;37.544;2023-08-21T08:28:22;3.50;;;1.27;;
74503;SDS011;62988;55.776;37.544;2023-08-21T08:30:48;6.23;;;1.30;;
74503;SDS011;62988;55.776;37.544;2023-08-21T08:33:13;3.30;;;1.13;;
74503;SDS011;62988;55.776;37.544;2023-08-21T08:35:41;3.90;;;1.60;;
74503;SDS011;62988;55.776;37.544;2023-08-21T08:38:06;3.53;;;1.27;;
74503;SDS011;62988;55.776;37.544;2023-08-21T08:40:31;1.77;;;1.00;;
74503;SDS011;62988;55.776;37.544;2023-08-21T08:42:58;3.10;;;1.17;;
74503;SDS011;62988;55.776;37.544;2023-08-21T08:45:28;3.83;;;1.25;;
74503;SDS011;62988;55.776;37.544;2023-08-21T08:47:55;3.20;;;1.23;;
74503;SDS011;62988;55.776;37.544;2023-08-21T08:50:21;4.05;;;1.23;;
74503;SDS011;62988;55.776;37.544;2023-08-21T08:52:46;2.13;;;1.10;;
74503;SDS011;62988;55.776;37.544;2023-08-21T08:55:12;2.08;;;1.17;;
74503;SDS011;62988;55.776;37.544;2023-08-21T08:57:37;4.53;;;1.40;;
74503;SDS011;62988;55.776;37.544;2023-08-21T09:00:03;3.17;;;1.23;;
74503;SDS011;62988;55.776;37.544;2023-08-21T09:02:29;4.50;;;1.70;;
74503;SDS011;62988;55.776;37.544;2023-08-21T09:04:55;4.53;;;1.45;;
74503;SDS011;62988;55.776;37.544;2023-08-21T09:07:20;3.40;;;1.33;;
74503;SDS011;62988;55.776;37.544;2023-08-21T09:09:46;6.38;;;1.42;;
74503;SDS011;62988;55.776;37.544;2023-08-21T09:12:13;4.50;;;1.40;;
74503;SDS011;62988;55.776;37.544;2023-08-21T09:14:39;4.53;;;1.20;;
74503;SDS011;62988;55.776;37.544;2023-08-21T09:17:05;5.43;;;1.33;;
74503;SDS011;62988;55.776;37.544;2023-08-21T09:19:31;3.90;;;1.50;;
74503;SDS011;62988;55.776;37.544;2023-08-21T09:21:56;5.82;;;1.60;;
74503;SDS011;62988;55.776;37.544;2023-08-21T09:24:23;4.78;;;1.30;;
74503;SDS011;62988;55.776;37.544;2023-08-21T09:26:49;4.57;;;1.30;;
74503;SDS011;62988;55.776;37.544;2023-08-21T09:29:17;4.20;;;1.65;;
74503;SDS011;62988;55.776;37.544;2023-08-21T09:31:43;3.35;;;1.83;;
74503;SDS011;62988;55.776;37.544;2023-08-21T09:34:10;4.43;;;1.60;;
74503;SDS011;62988;55.776;37.544;2023-08-21T09:36:36;5.00;;;1.60;;
74503;SDS011;62988;55.776;37.544;2023-08-21T09:39:03;5.53;;;1.40;;
74503;SDS011;62988;55.776;37.544;2023-08-21T09:41:29;5.95;;;1.80;;
74503;SDS011;62988;55.776;37.544;2023-08-21T09:43:58;3.13;;;1.40;;
74503;SDS011;62988;55.776;37.544;2023-08-21T09:46:24;2.85;;;1.50;;
74503;SDS011;62988;55.776;37.544;2023-08-21T09:48:50;2.72;;;1.20;;
74503;SDS011;62988;55.776;37.544;2023-08-21T09:51:16;3.55;;;1.60;;
74503;SDS011;62988;55.776;37.544;2023-08-21T09:53:42;3.45;;;1.23;;
74503;SDS011;62988;55.776;37.544;2023-08-21T09:56:07;6.32;;;1.38;;
74503;SDS011;62988;55.776;37.544;2023-08-21T09:58:34;3.92;;;1.33;;
74503;SDS011;62988;55.776;37.544;2023-08-21T10:01:00;3.08;;;1.40;;
74503;SDS011;62988;55.776;37.544;2023-08-21T10:03:28;4.32;;;1.67;;
74503;SDS011;62988;55.776;37.544;2023-08-21T10:05:55;4.65;;;1.30;;
74503;SDS011;62988;55.776;37.544;2023-08-21T10:08:23;4.53;;;1.40;;
74503;SDS011;62988;55.776;37.544;2023-08-21T10:10:49;3.95;;;1.23;;
74503;SDS011;62988;55.776;37.544;2023-08-21T10:13:14;6.57;;;1.80;;
74503;SDS011;62988;55.776;37.544;2023-08-21T10:15:40;4.72;;;1.55;;
74503;SDS011;62988;55.776;37.544;2023-08-21T10:21:14;5.47;;;1.30;;
74503;SDS011;62988;55.776;37.544;2023-08-21T10:23:40;3.08;;;1.30;;
74503;SDS011;62988;55.776;37.544;2023-08-21T10:26:06;3.67;;;1.45;;
74503;SDS011;62988;55.776;37.544;2023-08-21T10:33:53;3.33;;;1.45;;
74503;SDS011;62988;55.776;37.544;2023-08-21T10:39:03;5.13;;;1.23;;
74503;SDS011;62988;55.776;37.544;2023-08-21T10:41:29;2.90;;;1.35;;
74503;SDS011;62988;55.776;37.544;2023-08-21T10:43:54;5.32;;;1.63;;
74503;SDS011;62988;55.776;37.544;2023-08-21T10:46:20;4.60;;;1.08;;
74503;SDS011;62988;55.776;37.544;2023-08-21T10:48:45;4.65;;;1.95;;
74503;SDS011;62988;55.776;37.544;2023-08-21T10:51:13;8.57;;;1.50;;
74503;SDS011;62988;55.776;37.544;2023-08-21T10:53:41;3.58;;;1.48;;
74503;SDS011;62988;55.776;37.544;2023-08-21T10:56:07;6.50;;;1.42;;
74503;SDS011;62988;55.776;37.544;2023-08-21T10:58:42;3.88;;;1.38;;
74503;SDS011;62988;55.776;37.544;2023-08-21T11:01:07;4.13;;;1.40;;
74503;SDS011;62988;55.776;37.544;2023-08-21T11:03:33;4.63;;;1.52;;
74503;SDS011;62988;55.776;37.544;2023-08-21T11:06:05;2.95;;;1.35;;
74503;SDS011;62988;55.776;37.544;2023-08-21T11:08:33;5.03;;;1.58;;
74503;SDS011;62988;55.776;37.544;2023-08-21T11:11:00;3.40;;;1.55;;
74503;SDS011;62988;55.776;37.544;2023-08-21T11:13:25;5.43;;;1.70;;
74503;SDS011;62988;55.776;37.544;2023-08-21T11:16:00;3.25;;;1.50;;
74503;SDS011;62988;55.776;37.544;2023-08-21T11:18:33;4.55;;;1.33;;
74503;SDS011;62988;55.776;37.544;2023-08-21T11:21:08;5.47;;;1.65;;
74503;SDS011;62988;55.776;37.544;2023-08-21T11:23:34;7.28;;;1.70;;
74503;SDS011;62988;55.776;37.544;2023-08-21T11:26:00;3.22;;;1.50;;
74503;SDS011;62988;55.776;37.544;2023-08-21T11:28:27;5.88;;;1.80;;
74503;SDS011;62988;55.776;37.544;2023-08-21T11:30:54;4.45;;;1.63;;
74503;SDS011;62988;55.776;37.544;2023-08-21T11:33:20;4.60;;;1.90;;
74503;SDS011;62988;55.776;37.544;2023-08-21T11:35:45;4.83;;;1.60;;
74503;SDS011;62988;55.776;37.544;2023-08-21T11:38:17;2.95;;;1.50;;
74503;SDS011;62988;55.776;37.544;2023-08-21T11:40:50;5.25;;;1.67;;
74503;SDS011;62988;55.776;37.544;2023-08-21T11:43:16;3.40;;;1.58;;
74503;SDS011;62988;55.776;37.544;2023-08-21T11:45:41;5.32;;;1.45;;
74503;SDS011;62988;55.776;37.544;2023-08-21T11:48:06;13.40;;;1.98;;
74503;SDS011;62988;55.776;37.544;2023-08-21T11:50:32;4.25;;;1.70;;
74503;SDS011;62988;55.776;37.544;2023-08-21T11:52:57;5.37;;;1.60;;
74503;SDS011;62988;55.776;37.544;2023-08-21T11:55:22;7.10;;;1.70;;
74503;SDS011;62988;55.776;37.544;2023-08-21T11:57:48;4.43;;;1.63;;
74503;SDS011;62988;55.776;37.544;2023-08-21T12:00:14;3.65;;;1.60;;
74503;SDS011;62988;55.776;37.544;2023-08-21T12:02:39;5.32;;;1.80;;
74503;SDS011;62988;55.776;37.544;2023-08-21T12:05:05;6.13;;;1.67;;
74503;SDS011;62988;55.776;37.544;2023-08-21T12:07:33;6.80;;;1.30;;
74503;SDS011;62988;55.776;37.544;2023-08-21T12:09:59;8.55;;;1.60;;
74503;SDS011;62988;55.776;37.544;2023-08-21T12:12:24;4.05;;;1.48;;
74503;SDS011;62988;55.776;37.544;2023-08-21T12:14:49;5.20;;;1.52;;
74503;SDS011;62988;55.776;37.544;2023-08-21T12:17:15;3.67;;;1.13;;
74503;SDS011;62988;55.776;37.544;2023-08-21T12:19:40;11.27;;;1.77;;
74503;SDS011;62988;55.776;37.544;2023-08-21T12:22:07;5.70;;;1.67;;
74503;SDS011;62988;55.776;37.544;2023-08-21T12:24:32;3.97;;;1.23;;
74503;SDS011;62988;55.776;37.544;2023-08-21T12:26:57;9.10;;;1.60;;
74503;SDS011;62988;55.776;37.544;2023-08-21T12:29:23;8.93;;;1.50;;
74503;SDS011;62988;55.776;37.544;2023-08-21T12:31:48;34.78;;;4.18;;
74503;SDS011;62988;55.776;37.544;2023-08-21T12:34:16;18.33;;;2.17;;
74503;SDS011;62988;55.776;37.544;2023-08-21T12:36:42;7.45;;;1.55;;
74503;SDS011;62988;55.776;37.544;2023-08-21T12:39:07;7.80;;;1.60;;
74503;SDS011;62988;55.776;37.544;2023-08-21T12:41:33;9.95;;;1.50;;
74503;SDS011;62988;55.776;37.544;2023-08-21T12:43:59;5.97;;;1.80;;
74503;SDS011;62988;55.776;37.544;2023-08-21T12:46:25;4.28;;;1.60;;
74503;SDS011;62988;55.776;37.544;2023-08-21T12:48:52;7.82;;;1.55;;
74503;SDS011;62988;55.776;37.544;2023-08-21T12:51:18;3.65;;;1.50;;
74503;SDS011;62988;55.776;37.544;2023-08-21T12:53:43;5.13;;;1.63;;
74503;SDS011;62988;55.776;37.544;2023-08-21T12:56:08;4.43;;;1.33;;
74503;SDS011;62988;55.776;37.544;2023-08-21T12:58:34;5.78;;;1.30;;
74503;SDS011;62988;55.776;37.544;2023-08-21T13:00:59;3.93;;;1.33;;
74503;SDS011;62988;55.776;37.544;2023-08-21T13:03:24;3.35;;;1.30;;
74503;SDS011;62988;55.776;37.544;2023-08-21T13:05:50;3.40;;;1.67;;
74503;SDS011;62988;55.776;37.544;2023-08-21T13:08:15;4.13;;;1.37;;
74503;SDS011;62988;55.776;37.544;2023-08-21T13:10:40;3.53;;;1.55;;
74503;SDS011;62988;55.776;37.544;2023-08-21T13:13:06;6.25;;;1.90;;
74503;SDS011;62988;55.776;37.544;2023-08-21T13:15:31;8.00;;;1.60;;
74503;SDS011;62988;55.776;37.544;2023-08-21T13:17:57;5.30;;;1.53;;
74503;SDS011;62988;55.776;37.544;2023-08-21T13:20:22;7.30;;;1.55;;
74503;SDS011;62988;55.776;37.544;2023-08-21T13:22:49;5.18;;;1.98;;
74503;SDS011;62988;55.776;37.544;2023-08-21T13:25:15;6.10;;;1.50;;
74503;SDS011;62988;55.776;37.544;2023-08-21T13:27:40;4.65;;;1.38;;
74503;SDS011;62988;55.776;37.544;2023-08-21T13:30:06;4.47;;;1.58;;
74503;SDS011;62988;55.776;37.544;2023-08-21T13:32:32;3.40;;;1.38;;
74503;SDS011;62988;55.776;37.544;2023-08-21T13:34:58;5.43;;;1.50;;
74503;SDS011;62988;55.776;37.544;2023-08-21T13:37:23;3.67;;;1.40;;
74503;SDS011;62988;55.776;37.544;2023-08-21T13:39:48;4.00;;;1.10;;
74503;SDS011;62988;55.776;37.544;2023-08-21T13:42:14;3.83;;;1.43;;
74503;SDS011;62988;55.776;37.544;2023-08-21T13:44:39;5.37;;;1.87;;
74503;SDS011;62988;55.776;37.544;2023-08-21T13:47:04;2.97;;;1.60;;
74503;SDS011;62988;55.776;37.544;2023-08-21T13:49:30;5.05;;;1.40;;
74503;SDS011;62988;55.776;37.544;2023-08-21T13:51:55;3.70;;;1.47;;
74503;SDS011;62988;55.776;37.544;2023-08-21T13:54:20;2.35;;;1.00;;
74503;SDS011;62988;55.776;37.544;2023-08-21T13:56:46;4.20;;;1.00;;
74503;SDS011;62988;55.776;37.544;2023-08-21T13:59:11;4.43;;;1.33;;
74503;SDS011;62988;55.776;37.544;2023-08-21T14:01:36;2.77;;;1.20;;
74503;SDS011;62988;55.776;37.544;2023-08-21T14:04:02;6.53;;;1.77;;
74503;SDS011;62988;55.776;37.544;2023-08-21T14:06:27;4.65;;;1.42;;
74503;SDS011;62988;55.776;37.544;2023-08-21T14:08:54;5.68;;;1.60;;
74503;SDS011;62988;55.776;37.544;2023-08-21T14:11:19;5.05;;;1.30;;
74503;SDS011;62988;55.776;37.544;2023-08-21T14:13:45;4.17;;;2.27;;
74503;SDS011;62988;55.776;37.544;2023-08-21T14:16:10;3.10;;;1.40;;
74503;SDS011;62988;55.776;37.544;2023-08-21T14:18:36;4.35;;;1.65;;
74503;SDS011;62988;55.776;37.544;2023-08-21T14:21:01;2.73;;;1.37;;
74503;SDS011;62988;55.776;37.544;2023-08-21T14:23:27;5.30;;;1.15;;
74503;SDS011;62988;55.776;37.544;2023-08-21T14:25:52;5.27;;;1.27;;
74503;SDS011;62988;55.776;37.544;2023-08-21T14:28:17;7.23;;;1.73;;
74503;SDS011;62988;55.776;37.544;2023-08-21T14:30:43;11.97;;;2.23;;
74503;SDS011;62988;55.776;37.544;2023-08-21T14:33:10;5.43;;;1.85;;
74503;SDS011;62988;55.776;37.544;2023-08-21T14:35:35;8.07;;;1.80;;
74503;SDS011;62988;55.776;37.544;2023-08-21T14:38:01;7.17;;;1.57;;
74503;SDS011;62988;55.776;37.544;2023-08-21T14:40:26;7.75;;;1.33;;